createdAt,value
2017-11-08T00:00:54.272Z,6.6
2017-11-08T00:02:03.478Z,6.61
2017-11-08T00:03:12.350Z,6.61
2017-11-08T00:04:21.567Z,6.6
2017-11-08T00:05:30.108Z,6.58
2017-11-08T00:06:38.647Z,6.62
2017-11-08T00:07:47.185Z,6.57
2017-11-08T00:08:55.772Z,6.57
2017-11-08T00:10:04.985Z,6.57
2017-11-08T00:11:13.860Z,6.6
2017-11-08T00:12:22.744Z,6.62
2017-11-08T00:13:31.279Z,6.61
2017-11-08T00:14:39.817Z,6.65
2017-11-08T00:15:48.690Z,6.67
2017-11-08T00:16:57.564Z,6.67
2017-11-08T00:18:06.433Z,6.61
2017-11-08T00:19:14.967Z,6.65
2017-11-08T00:20:23.837Z,6.62
2017-11-08T00:21:32.708Z,6.67
2017-11-08T00:22:41.586Z,6.72
2017-11-08T00:23:50.474Z,6.7
2017-11-08T00:24:59.345Z,6.75
2017-11-08T00:26:07.885Z,6.73
2017-11-08T00:27:17.095Z,6.78
2017-11-08T00:28:26.305Z,6.78
2017-11-08T00:29:35.850Z,6.76
2017-11-08T00:30:45.105Z,6.75
2017-11-08T00:31:53.643Z,6.75
2017-11-08T00:33:03.201Z,6.72
2017-11-08T00:34:12.077Z,6.82
2017-11-08T00:35:21.283Z,6.76
2017-11-08T00:36:30.156Z,6.78
2017-11-08T00:37:39.029Z,6.78
2017-11-08T00:38:48.239Z,6.78
2017-11-08T00:39:56.782Z,6.76
2017-11-08T00:41:05.646Z,6.73
2017-11-08T00:42:14.522Z,6.78
2017-11-08T00:43:23.736Z,6.78
2017-11-08T00:44:32.272Z,6.8
2017-11-08T00:45:41.144Z,6.72
2017-11-08T00:46:50.362Z,6.82
2017-11-08T00:47:59.318Z,6.8
2017-11-08T00:49:07.857Z,6.85
2017-11-08T00:50:16.729Z,6.82
2017-11-08T00:51:25.613Z,6.85
2017-11-08T00:52:34.491Z,6.82
2017-11-08T00:53:43.036Z,6.85
2017-11-08T00:54:51.918Z,6.88
2017-11-08T00:56:00.778Z,6.78
2017-11-08T00:57:09.655Z,6.83
2017-11-08T00:58:19.212Z,6.83
2017-11-08T00:59:28.080Z,6.83
2017-11-08T01:00:36.957Z,6.78
2017-11-08T01:01:45.829Z,6.82
2017-11-08T01:02:54.707Z,6.8
2017-11-08T01:04:03.915Z,6.85
2017-11-08T01:05:12.501Z,6.76
2017-11-08T01:06:21.377Z,6.76
2017-11-08T01:07:29.913Z,6.82
2017-11-08T01:08:38.452Z,6.86
2017-11-08T01:09:47.658Z,6.83
2017-11-08T01:10:56.531Z,6.78
2017-11-08T01:12:05.407Z,6.83
2017-11-08T01:13:13.944Z,6.85
2017-11-08T01:14:22.814Z,6.79
2017-11-08T01:15:31.354Z,6.79
2017-11-08T01:16:40.226Z,6.75
2017-11-08T01:17:49.098Z,6.88
2017-11-08T01:18:57.972Z,6.82
2017-11-08T01:20:06.844Z,6.79
2017-11-08T01:21:15.715Z,6.85
2017-11-08T01:22:24.642Z,6.88
2017-11-08T01:23:33.512Z,6.8
2017-11-08T01:24:42.393Z,6.79
2017-11-08T01:25:51.603Z,6.83
2017-11-08T01:27:00.481Z,6.82
2017-11-08T01:28:09.355Z,6.76
2017-11-08T01:29:17.898Z,6.79
2017-11-08T01:30:27.106Z,6.85
2017-11-08T01:31:35.644Z,6.83
2017-11-08T01:32:44.517Z,6.88
2017-11-08T01:33:53.389Z,6.86
2017-11-08T01:35:01.930Z,6.88
2017-11-08T01:36:10.807Z,6.93
2017-11-08T01:37:19.347Z,6.85
2017-11-08T01:38:28.223Z,6.85
2017-11-08T01:39:37.435Z,6.82
2017-11-08T01:40:47.315Z,6.8
2017-11-08T01:41:56.524Z,6.94
2017-11-08T01:43:05.412Z,6.88
2017-11-08T01:44:13.941Z,6.91
2017-11-08T01:45:22.867Z,6.94
2017-11-08T01:46:32.085Z,6.91
2017-11-08T01:47:40.623Z,6.85
2017-11-08T01:48:49.830Z,6.95
2017-11-08T01:49:58.703Z,6.97
2017-11-08T01:51:07.248Z,6.95
2017-11-08T01:52:16.793Z,6.94
2017-11-08T01:53:26.016Z,6.86
2017-11-08T01:54:34.888Z,7.04
2017-11-08T01:55:43.755Z,7.03
2017-11-08T01:56:52.628Z,6.97
2017-11-08T01:58:01.505Z,6.95
2017-11-08T01:59:10.053Z,6.94
2017-11-08T02:00:18.926Z,7
2017-11-08T02:01:27.464Z,6.9
2017-11-08T02:02:36.339Z,7.03
2017-11-08T02:03:45.556Z,6.97
2017-11-08T02:04:54.432Z,6.98
2017-11-08T02:06:03.503Z,7.03
2017-11-08T02:07:12.379Z,7.03
2017-11-08T02:08:21.304Z,7
2017-11-08T02:09:29.837Z,7
2017-11-08T02:10:38.710Z,6.97
2017-11-08T02:11:47.247Z,7.03
2017-11-08T02:12:56.478Z,7.03
2017-11-08T02:14:05.368Z,7.04
2017-11-08T02:15:14.265Z,7.13
2017-11-08T02:16:23.475Z,7
2017-11-08T02:17:32.014Z,7.01
2017-11-08T02:18:40.891Z,7.03
2017-11-08T02:19:50.101Z,7.12
2017-11-08T02:20:59.317Z,7.13
2017-11-08T02:22:07.855Z,7.01
2017-11-08T02:23:17.068Z,7.08
2017-11-08T02:24:25.607Z,7.08
2017-11-08T02:25:34.873Z,7.01
2017-11-08T02:26:44.448Z,7.03
2017-11-08T02:27:53.330Z,7.04
2017-11-08T02:29:02.201Z,7
2017-11-08T02:30:10.753Z,6.98
2017-11-08T02:31:19.947Z,7
2017-11-08T02:32:28.820Z,7.04
2017-11-08T02:33:37.694Z,6.98
2017-11-08T02:34:46.595Z,7.04
2017-11-08T02:35:55.132Z,6.98
2017-11-08T02:37:03.672Z,7.04
2017-11-08T02:38:12.541Z,7.13
2017-11-08T02:39:21.078Z,7.03
2017-11-08T02:40:30.287Z,6.98
2017-11-08T02:41:39.163Z,7.03
2017-11-08T02:42:47.750Z,7.12
2017-11-08T02:43:56.973Z,7.08
2017-11-08T02:45:05.851Z,7.05
2017-11-08T02:46:14.725Z,7.13
2017-11-08T02:47:23.602Z,7.03
2017-11-08T02:48:32.808Z,7.15
2017-11-08T02:49:42.019Z,7.04
2017-11-08T02:50:50.556Z,7.04
2017-11-08T02:51:59.430Z,7.13
2017-11-08T02:53:08.301Z,7.01
2017-11-08T02:54:16.841Z,7.12
2017-11-08T02:55:25.382Z,7.13
2017-11-08T02:56:34.254Z,7.12
2017-11-08T02:57:42.795Z,7.15
2017-11-08T02:58:51.664Z,7.18
2017-11-08T03:00:00.935Z,7.16
2017-11-08T03:01:09.802Z,7.19
2017-11-08T03:02:18.343Z,7.21
2017-11-08T03:03:27.551Z,7.26
2017-11-08T03:04:36.766Z,7.21
2017-11-08T03:05:45.307Z,7.23
2017-11-08T03:06:54.177Z,7.22
2017-11-08T03:08:02.716Z,7.19
2017-11-08T03:09:11.933Z,7.18
2017-11-08T03:10:20.798Z,7.19
2017-11-08T03:11:30.005Z,7.22
2017-11-08T03:12:38.543Z,7.22
2017-11-08T03:13:47.417Z,7.23
2017-11-08T03:14:55.961Z,7.16
2017-11-08T03:16:05.171Z,7.22
2017-11-08T03:17:14.092Z,7.16
2017-11-08T03:18:22.964Z,7.16
2017-11-08T03:19:31.499Z,7.11
2017-11-08T03:20:40.035Z,7.18
2017-11-08T03:21:48.571Z,7.18
2017-11-08T03:22:57.448Z,7.18
2017-11-08T03:24:06.322Z,7.12
2017-11-08T03:25:15.195Z,7.27
2017-11-08T03:26:23.739Z,7.26
2017-11-08T03:27:32.608Z,7.18
2017-11-08T03:28:41.476Z,7.23
2017-11-08T03:29:50.687Z,7.26
2017-11-08T03:30:59.899Z,7.21
2017-11-08T03:32:08.776Z,7.22
2017-11-08T03:33:17.649Z,7.16
2017-11-08T03:34:26.906Z,7.27
2017-11-08T03:35:35.444Z,7.21
2017-11-08T03:36:44.657Z,7.26
2017-11-08T03:37:53.866Z,7.31
2017-11-08T03:39:03.077Z,7.34
2017-11-08T03:40:11.616Z,7.33
2017-11-08T03:41:20.826Z,7.26
2017-11-08T03:42:29.701Z,7.21
2017-11-08T03:43:38.243Z,7.31
2017-11-08T03:44:47.452Z,7.31
2017-11-08T03:45:56.663Z,7.21
2017-11-08T03:47:05.200Z,7.21
2017-11-08T03:48:14.072Z,7.16
2017-11-08T03:49:22.944Z,7.21
2017-11-08T03:50:32.153Z,7.19
2017-11-08T03:51:40.693Z,7.29
2017-11-08T03:52:49.236Z,7.29
2017-11-08T03:53:58.110Z,7.29
2017-11-08T03:55:06.984Z,7.34
2017-11-08T03:56:16.525Z,7.22
2017-11-08T03:57:25.741Z,7.36
2017-11-08T03:58:34.617Z,7.19
2017-11-08T03:59:43.840Z,7.23
2017-11-08T04:00:52.712Z,7.26
2017-11-08T04:02:01.590Z,7.23
2017-11-08T04:03:10.852Z,7.21
2017-11-08T04:04:19.734Z,7.23
2017-11-08T04:05:28.946Z,7.34
2017-11-08T04:06:37.842Z,7.27
2017-11-08T04:07:46.361Z,7.3
2017-11-08T04:08:55.248Z,7.36
2017-11-08T04:10:03.794Z,7.34
2017-11-08T04:11:13.338Z,7.3
2017-11-08T04:12:21.875Z,7.36
2017-11-08T04:13:30.413Z,7.34
2017-11-08T04:14:40.299Z,7.36
2017-11-08T04:15:48.843Z,7.33
2017-11-08T04:16:57.716Z,7.36
2017-11-08T04:18:07.275Z,7.3
2017-11-08T04:19:16.821Z,7.47
2017-11-08T04:20:26.030Z,7.31
2017-11-08T04:21:34.567Z,7.37
2017-11-08T04:22:43.794Z,7.4
2017-11-08T04:23:52.672Z,7.36
2017-11-08T04:25:01.549Z,7.33
2017-11-08T04:26:10.422Z,7.33
2017-11-08T04:27:18.965Z,7.31
2017-11-08T04:28:27.502Z,7.33
2017-11-08T04:29:36.715Z,7.29
2017-11-08T04:30:45.939Z,7.33
2017-11-08T04:31:55.146Z,7.23
2017-11-08T04:33:04.357Z,7.34
2017-11-08T04:34:14.070Z,7.27
2017-11-08T04:35:22.607Z,7.27
2017-11-08T04:36:32.164Z,7.23
2017-11-08T04:37:41.086Z,7.27
2017-11-08T04:38:49.962Z,7.27
2017-11-08T04:39:59.178Z,7.3
2017-11-08T04:41:08.401Z,7.21
2017-11-08T04:42:17.624Z,7.21
2017-11-08T04:43:26.509Z,7.23
2017-11-08T04:44:35.380Z,7.29
2017-11-08T04:45:43.916Z,7.26
2017-11-08T04:46:52.787Z,7.27
2017-11-08T04:48:01.668Z,7.29
2017-11-08T04:49:10.538Z,7.22
2017-11-08T04:50:19.415Z,7.31
2017-11-08T04:51:28.660Z,7.18
2017-11-08T04:52:37.534Z,7.3
2017-11-08T04:53:46.071Z,7.23
2017-11-08T04:54:54.991Z,7.16
2017-11-08T04:56:03.866Z,7.27
2017-11-08T04:57:13.080Z,7.27
2017-11-08T04:58:22.287Z,7.21
2017-11-08T04:59:31.160Z,7.21
2017-11-08T05:00:39.698Z,7.15
2017-11-08T05:01:48.576Z,7.18
2017-11-08T05:02:57.444Z,7.16
2017-11-08T05:04:05.982Z,7.12
2017-11-08T05:05:14.542Z,7.12
2017-11-08T05:06:23.750Z,7.03
2017-11-08T05:07:32.620Z,7.15
2017-11-08T05:08:41.167Z,7.11
2017-11-08T05:09:49.701Z,7.09
2017-11-08T05:10:58.241Z,6.98
2017-11-08T05:12:06.828Z,7.01
2017-11-08T05:13:15.366Z,6.98
2017-11-08T05:14:23.906Z,7.16
2017-11-08T05:15:32.791Z,7.01
2017-11-08T05:16:42.672Z,7
2017-11-08T05:17:52.555Z,6.98
2017-11-08T05:19:01.766Z,7
2017-11-08T05:20:10.984Z,7.04
2017-11-08T05:21:19.861Z,7.16
2017-11-08T05:22:29.407Z,7
2017-11-08T05:23:38.622Z,7.01
2017-11-08T05:24:47.161Z,6.95
2017-11-08T05:25:56.036Z,6.98
2017-11-08T05:27:04.915Z,6.95
2017-11-08T05:28:13.790Z,7.03
2017-11-08T05:29:23.045Z,7.05
2017-11-08T05:30:31.580Z,7.04
2017-11-08T05:31:40.456Z,7.03
2017-11-08T05:32:48.992Z,7.04
2017-11-08T05:33:57.865Z,7.13
2017-11-08T05:35:07.078Z,7.03
2017-11-08T05:36:15.614Z,7.03
2017-11-08T05:37:24.150Z,7
2017-11-08T05:38:32.691Z,7.03
2017-11-08T05:39:41.903Z,6.98
2017-11-08T05:40:50.439Z,7.05
2017-11-08T05:41:58.973Z,7.03
2017-11-08T05:43:07.851Z,7.03
2017-11-08T05:44:16.727Z,6.97
2017-11-08T05:45:25.604Z,6.94
2017-11-08T05:46:34.186Z,6.94
2017-11-08T05:47:43.396Z,7.01
2017-11-08T05:48:51.932Z,6.97
2017-11-08T05:50:00.470Z,6.97
2017-11-08T05:51:09.341Z,6.97
2017-11-08T05:52:18.215Z,7.01
2017-11-08T05:53:27.434Z,6.97
2017-11-08T05:54:36.305Z,7
2017-11-08T05:55:45.179Z,7.01
2017-11-08T05:56:54.047Z,7
2017-11-08T05:58:02.590Z,7.04
2017-11-08T05:59:11.800Z,7.03
2017-11-08T06:00:20.673Z,7.08
2017-11-08T06:01:29.881Z,7
2017-11-08T06:02:38.420Z,7
2017-11-08T06:03:47.301Z,7.01
2017-11-08T06:04:55.838Z,6.94
2017-11-08T06:06:04.712Z,7.13
2017-11-08T06:07:13.583Z,7.15
2017-11-08T06:08:22.119Z,7.04
2017-11-08T06:09:31.669Z,7.13
2017-11-08T06:10:40.220Z,7.04
2017-11-08T06:11:49.428Z,7
2017-11-08T06:12:57.965Z,7
2017-11-08T06:14:06.504Z,7.08
2017-11-08T06:15:15.383Z,7.12
2017-11-08T06:16:24.257Z,7.15
2017-11-08T06:17:33.130Z,7.09
2017-11-08T06:18:42.006Z,7.12
2017-11-08T06:19:50.883Z,7.19
2017-11-08T06:20:59.761Z,7.12
2017-11-08T06:22:08.977Z,7.22
2017-11-08T06:23:18.184Z,7.19
2017-11-08T06:24:27.062Z,7.18
2017-11-08T06:25:36.606Z,7.29
2017-11-08T06:26:45.484Z,7.27
2017-11-08T06:27:54.695Z,7.21
2017-11-08T06:29:03.567Z,7.27
2017-11-08T06:30:12.442Z,7.33
2017-11-08T06:31:21.647Z,7.33
2017-11-08T06:32:30.522Z,7.41
2017-11-08T06:33:39.063Z,7.36
2017-11-08T06:34:48.286Z,7.41
2017-11-08T06:35:56.822Z,7.34
2017-11-08T06:37:05.357Z,7.44
2017-11-08T06:38:14.573Z,7.37
2017-11-08T06:39:24.126Z,7.49
2017-11-08T06:40:33.002Z,7.52
2017-11-08T06:41:41.563Z,7.54
2017-11-08T06:42:50.436Z,7.51
2017-11-08T06:43:59.312Z,7.52
2017-11-08T06:45:08.186Z,7.55
2017-11-08T06:46:17.061Z,7.52
2017-11-08T06:47:25.602Z,7.52
2017-11-08T06:48:34.821Z,7.58
2017-11-08T06:49:43.403Z,7.51
2017-11-08T06:50:52.280Z,7.7
2017-11-08T06:52:01.154Z,7.63
2017-11-08T06:53:10.033Z,7.67
2017-11-08T06:54:18.910Z,7.67
2017-11-08T06:55:28.472Z,7.73
2017-11-08T06:56:37.356Z,7.71
2017-11-08T06:57:46.233Z,7.67
2017-11-08T06:58:55.438Z,7.68
2017-11-08T07:00:03.977Z,7.67
2017-11-08T07:01:12.569Z,7.77
2017-11-08T07:02:21.106Z,7.71
2017-11-08T07:03:30.668Z,7.74
2017-11-08T07:04:39.888Z,7.7
2017-11-08T07:05:48.433Z,7.85
2017-11-08T07:06:57.639Z,7.85
2017-11-08T07:08:06.515Z,7.85
2017-11-08T07:09:15.724Z,7.8
2017-11-08T07:10:24.264Z,7.85
2017-11-08T07:11:33.473Z,7.82
2017-11-08T07:12:42.685Z,7.86
2017-11-08T07:13:52.256Z,7.88
2017-11-08T07:15:01.467Z,7.85
2017-11-08T07:16:10.344Z,7.83
2017-11-08T07:17:19.566Z,7.85
2017-11-08T07:18:28.496Z,7.85
2017-11-08T07:19:37.366Z,7.83
2017-11-08T07:20:45.905Z,7.91
2017-11-08T07:21:54.781Z,7.92
2017-11-08T07:23:03.653Z,7.91
2017-11-08T07:24:12.861Z,7.91
2017-11-08T07:25:21.733Z,7.91
2017-11-08T07:26:30.947Z,7.92
2017-11-08T07:27:39.480Z,7.93
2017-11-08T07:28:49.030Z,7.92
2017-11-08T07:29:57.567Z,8.07
2017-11-08T07:31:06.439Z,8.01
2017-11-08T07:32:15.315Z,7.96
2017-11-08T07:33:24.187Z,8.04
2017-11-08T07:34:32.836Z,8.06
2017-11-08T07:35:41.927Z,8.03
2017-11-08T07:36:50.464Z,8.14
2017-11-08T07:37:59.335Z,8.16
2017-11-08T07:39:07.870Z,8.21
2017-11-08T07:40:16.740Z,8.16
2017-11-08T07:41:25.275Z,8.19
2017-11-08T07:42:34.154Z,8.22
2017-11-08T07:43:43.361Z,8.19
2017-11-08T07:44:51.895Z,8.25
2017-11-08T07:46:00.434Z,8.28
2017-11-08T07:47:09.309Z,8.25
2017-11-08T07:48:17.851Z,8.28
2017-11-08T07:49:26.725Z,8.22
2017-11-08T07:50:35.600Z,8.29
2017-11-08T07:51:44.146Z,8.21
2017-11-08T07:52:53.022Z,8.21
2017-11-08T07:54:02.239Z,8.22
2017-11-08T07:55:11.111Z,8.17
2017-11-08T07:56:19.985Z,8.21
2017-11-08T07:57:28.862Z,8.17
2017-11-08T07:58:38.087Z,8.26
2017-11-08T07:59:47.326Z,8.22
2017-11-08T08:00:56.204Z,8.22
2017-11-08T08:02:05.445Z,8.17
2017-11-08T08:03:13.964Z,8.22
2017-11-08T08:04:22.498Z,8.21
2017-11-08T08:05:31.372Z,8.21
2017-11-08T08:06:40.251Z,8.22
2017-11-08T08:07:49.463Z,8.26
2017-11-08T08:08:58.673Z,8.26
2017-11-08T08:10:07.592Z,8.36
2017-11-08T08:11:16.468Z,8.32
2017-11-08T08:12:25.351Z,8.29
2017-11-08T08:13:34.228Z,8.34
2017-11-08T08:14:43.098Z,8.29
2017-11-08T08:15:51.970Z,8.35
2017-11-08T08:17:00.507Z,8.39
2017-11-08T08:18:09.385Z,8.39
2017-11-08T08:19:18.934Z,8.36
2017-11-08T08:20:27.806Z,8.34
2017-11-08T08:21:36.348Z,8.29
2017-11-08T08:22:45.220Z,8.35
2017-11-08T08:23:54.093Z,8.26
2017-11-08T08:25:02.965Z,8.26
2017-11-08T08:26:11.838Z,8.36
2017-11-08T08:27:20.424Z,8.32
2017-11-08T08:28:29.297Z,8.35
2017-11-08T08:29:37.841Z,8.29
2017-11-08T08:30:47.060Z,8.34
2017-11-08T08:31:55.931Z,8.42
2017-11-08T08:33:04.817Z,8.31
2017-11-08T08:34:13.691Z,8.39
2017-11-08T08:35:24.526Z,8.49
2017-11-08T08:36:33.066Z,8.31
2017-11-08T08:37:42.621Z,8.34
2017-11-08T08:38:52.747Z,8.42
2017-11-08T08:40:01.619Z,8.43
2017-11-08T08:41:10.502Z,8.43
2017-11-08T08:42:19.711Z,8.4
2017-11-08T08:43:28.249Z,8.46
2017-11-08T08:44:36.789Z,8.43
2017-11-08T08:45:45.666Z,8.53
2017-11-08T08:46:54.892Z,8.44
2017-11-08T08:48:04.120Z,8.43
2017-11-08T08:49:12.660Z,8.43
2017-11-08T08:50:21.205Z,8.42
2017-11-08T08:51:30.109Z,8.4
2017-11-08T08:52:39.320Z,8.5
2017-11-08T08:53:48.198Z,8.52
2017-11-08T08:54:57.409Z,8.54
2017-11-08T08:56:05.997Z,8.52
2017-11-08T08:57:14.539Z,8.57
2017-11-08T08:58:23.080Z,8.64
2017-11-08T08:59:31.744Z,8.65
2017-11-08T09:00:40.304Z,8.71
2017-11-08T09:01:49.631Z,8.68
2017-11-08T09:02:58.517Z,8.71
2017-11-08T09:04:07.401Z,8.77
2017-11-08T09:05:16.275Z,8.76
2017-11-08T09:06:25.494Z,8.82
2017-11-08T09:07:34.703Z,8.77
2017-11-08T09:08:43.242Z,8.82
2017-11-08T09:09:52.453Z,8.83
2017-11-08T09:11:00.994Z,8.8
2017-11-08T09:12:09.531Z,8.87
2017-11-08T09:13:18.068Z,8.87
2017-11-08T09:14:26.607Z,8.87
2017-11-08T09:15:35.486Z,8.87
2017-11-08T09:16:44.024Z,8.97
2017-11-08T09:17:52.565Z,8.97
2017-11-08T09:19:01.831Z,8.87
2017-11-08T09:20:10.730Z,8.97
2017-11-08T09:21:19.590Z,9.09
2017-11-08T09:22:28.869Z,9.05
2017-11-08T09:26:37.441Z,9.04
2017-11-08T09:26:55.609Z,9.05
2017-11-08T09:28:04.489Z,9.16
2017-11-08T09:29:13.031Z,9.19
2017-11-08T09:30:21.576Z,9.17
2017-11-08T09:31:30.451Z,9.14
2017-11-08T09:32:39.324Z,9.21
2017-11-08T09:33:47.868Z,9.17
2017-11-08T09:34:56.748Z,9.2
2017-11-08T09:36:05.974Z,9.3
2017-11-08T09:37:15.631Z,9.29
2017-11-08T09:38:24.526Z,9.21
2017-11-08T09:39:33.402Z,9.29
2017-11-08T09:40:42.284Z,9.29
2017-11-08T09:41:50.827Z,9.26
2017-11-08T09:42:59.372Z,9.27
2017-11-08T09:44:07.914Z,9.29
2017-11-08T09:45:16.464Z,9.32
2017-11-08T09:46:25.335Z,9.3
2017-11-08T09:47:34.216Z,9.37
2017-11-08T09:48:43.091Z,9.32
2017-11-08T09:49:51.969Z,9.35
2017-11-08T09:51:00.841Z,9.29
2017-11-08T09:52:10.103Z,9.32
2017-11-08T09:53:18.944Z,9.37
2017-11-08T09:54:27.484Z,9.34
2017-11-08T09:55:36.363Z,9.37
2017-11-08T09:56:45.248Z,9.41
2017-11-08T09:57:53.790Z,9.42
2017-11-08T09:59:02.666Z,9.45
2017-11-08T10:00:11.232Z,9.41
2017-11-08T10:01:19.776Z,9.35
2017-11-08T10:02:28.652Z,9.41
2017-11-08T10:03:37.192Z,9.39
2017-11-08T10:04:46.253Z,9.34
2017-11-08T10:05:54.820Z,9.39
2017-11-08T10:07:03.703Z,9.38
2017-11-08T10:08:12.943Z,9.37
2017-11-08T10:09:22.162Z,9.41
2017-11-08T10:10:31.086Z,9.38
2017-11-08T10:11:39.627Z,9.35
2017-11-08T10:12:48.130Z,9.44
2017-11-08T10:13:56.688Z,9.38
2017-11-08T10:15:05.213Z,9.39
2017-11-08T10:16:14.124Z,9.39
2017-11-08T10:17:23.343Z,9.39
2017-11-08T10:18:32.555Z,9.39
2017-11-08T10:19:41.431Z,9.38
2017-11-08T10:20:50.351Z,9.3
2017-11-08T10:21:59.592Z,9.42
2017-11-08T10:23:08.807Z,9.35
2017-11-08T10:24:18.021Z,9.47
2017-11-08T10:25:26.896Z,9.5
2017-11-08T10:26:35.435Z,9.52
2017-11-08T10:27:43.983Z,9.5
2017-11-08T10:28:52.855Z,9.55
2017-11-08T10:30:01.735Z,9.53
2017-11-08T10:31:10.949Z,9.55
2017-11-08T10:32:19.486Z,9.59
2017-11-08T10:33:28.026Z,9.5
2017-11-08T10:34:36.565Z,9.63
2017-11-08T10:35:45.109Z,9.67
2017-11-08T10:36:54.702Z,9.48
2017-11-08T10:38:03.925Z,9.5
2017-11-08T10:39:12.807Z,9.59
2017-11-08T10:40:21.343Z,9.6
2017-11-08T10:41:30.216Z,9.67
2017-11-08T10:42:39.088Z,9.63
2017-11-08T10:43:48.183Z,9.52
2017-11-08T10:44:56.713Z,9.6
2017-11-08T10:46:05.935Z,9.57
2017-11-08T10:47:14.815Z,9.6
2017-11-08T10:48:23.698Z,9.63
2017-11-08T10:49:32.236Z,9.62
2017-11-08T10:50:41.114Z,9.62
2017-11-08T10:51:50.670Z,9.57
2017-11-08T10:52:59.552Z,9.57
2017-11-08T10:54:08.446Z,9.62
2017-11-08T10:55:17.661Z,9.59
2017-11-08T10:56:26.880Z,9.6
2017-11-08T10:57:36.466Z,9.62
2017-11-08T10:58:45.696Z,9.55
2017-11-08T10:59:54.736Z,9.71
2017-11-08T11:01:03.660Z,9.64
2017-11-08T11:02:12.562Z,9.67
2017-11-08T11:03:21.603Z,9.84
2017-11-08T11:04:30.481Z,9.81
2017-11-08T11:05:39.026Z,9.81
2017-11-08T11:06:48.254Z,9.89
2017-11-08T11:07:57.140Z,9.8
2017-11-08T11:09:05.679Z,9.85
2017-11-08T11:10:14.559Z,9.89
2017-11-08T11:11:23.098Z,9.89
2017-11-08T11:12:32.315Z,9.89
2017-11-08T11:13:41.529Z,9.93
2017-11-08T11:14:50.073Z,9.98
2017-11-08T11:15:58.625Z,9.93
2017-11-08T11:17:07.169Z,9.96
2017-11-08T11:18:15.722Z,10.02
2017-11-08T11:19:24.622Z,10.13
2017-11-08T11:20:33.843Z,10.14
2017-11-08T11:21:42.733Z,10.25
2017-11-08T11:22:51.626Z,10.17
2017-11-08T11:24:00.174Z,10.23
2017-11-08T11:25:08.723Z,10.33
2017-11-08T11:26:17.277Z,10.32
2017-11-08T11:27:26.507Z,10.36
2017-11-08T11:28:35.389Z,10.41
2017-11-08T11:29:43.935Z,10.42
2017-11-08T11:30:52.819Z,10.44
2017-11-08T11:32:01.785Z,10.42
2017-11-08T11:33:10.775Z,10.33
2017-11-08T11:34:19.998Z,10.44
2017-11-08T11:35:28.876Z,10.44
2017-11-08T11:36:37.418Z,10.42
2017-11-08T11:37:45.963Z,10.47
2017-11-08T11:38:54.854Z,10.52
2017-11-08T11:40:03.742Z,10.51
2017-11-08T11:41:13.014Z,10.57
2017-11-08T11:42:22.257Z,10.59
2017-11-08T11:43:31.059Z,10.59
2017-11-08T11:44:39.976Z,10.61
2017-11-08T11:45:48.861Z,10.58
2017-11-08T11:46:57.561Z,10.58
2017-11-08T11:48:06.112Z,10.63
2017-11-08T11:49:15.333Z,10.59
2017-11-08T11:50:24.214Z,10.55
2017-11-08T11:51:32.759Z,10.59
2017-11-08T11:52:41.641Z,10.58
2017-11-08T11:53:50.616Z,10.66
2017-11-08T11:54:59.527Z,10.65
2017-11-08T11:56:08.404Z,10.59
2017-11-08T11:57:17.301Z,10.57
2017-11-08T11:58:26.866Z,10.61
2017-11-08T11:59:36.123Z,10.65
2017-11-08T12:00:44.665Z,10.65
2017-11-08T12:01:53.210Z,10.55
2017-11-08T12:03:01.752Z,10.58
2017-11-08T12:04:10.971Z,10.61
2017-11-08T12:05:19.511Z,10.58
2017-11-08T12:06:28.063Z,10.46
2017-11-08T12:07:36.612Z,10.38
2017-11-08T12:08:45.830Z,10.39
2017-11-08T12:09:54.372Z,10.39
2017-11-08T12:11:03.590Z,10.39
2017-11-08T12:12:12.134Z,10.35
2017-11-08T12:13:20.677Z,10.42
2017-11-08T12:14:29.557Z,10.41
2017-11-08T12:15:38.814Z,10.33
2017-11-08T12:16:47.959Z,10.36
2017-11-08T12:17:56.837Z,10.41
2017-11-08T12:19:05.724Z,10.42
2017-11-08T12:20:14.632Z,10.44
2017-11-08T12:21:23.927Z,10.47
2017-11-08T12:22:33.588Z,10.42
2017-11-08T12:23:42.536Z,10.42
2017-11-08T12:24:51.414Z,10.36
2017-11-08T12:25:59.956Z,10.33
2017-11-08T12:27:08.496Z,10.31
2017-11-08T12:28:17.523Z,10.33
2017-11-08T12:29:26.743Z,10.33
2017-11-08T12:30:36.229Z,10.26
2017-11-08T12:31:44.773Z,10.21
2017-11-08T12:32:53.993Z,10.26
2017-11-08T12:34:02.632Z,10.29
2017-11-08T12:35:11.772Z,10.17
2017-11-08T12:36:20.637Z,10.23
2017-11-08T12:37:29.230Z,10.25
2017-11-08T12:38:38.107Z,10.18
2017-11-08T12:39:47.692Z,10.23
2017-11-08T12:40:56.916Z,10.2
2017-11-08T12:42:06.138Z,10.23
2017-11-08T12:43:14.672Z,10.21
2017-11-08T12:44:23.598Z,10.21
2017-11-08T12:45:32.171Z,10.32
2017-11-08T12:46:40.721Z,10.29
2017-11-08T12:47:49.606Z,10.26
2017-11-08T12:48:58.151Z,10.21
2017-11-08T12:50:07.033Z,10.21
2017-11-08T12:51:15.575Z,10.23
2017-11-08T12:52:24.801Z,10.36
2017-11-08T12:53:34.024Z,10.35
2017-11-08T12:54:42.903Z,10.28
2017-11-08T12:55:51.443Z,10.33
2017-11-08T12:56:59.989Z,10.21
2017-11-08T12:58:08.872Z,10.32
2017-11-08T12:59:17.416Z,10.33
2017-11-08T13:00:26.293Z,10.33
2017-11-08T13:01:35.174Z,10.39
2017-11-08T13:02:44.051Z,10.32
2017-11-08T13:03:53.618Z,10.31
2017-11-08T13:05:02.497Z,10.36
2017-11-08T13:06:11.044Z,10.36
2017-11-08T13:07:19.953Z,10.32
2017-11-08T13:08:28.817Z,10.41
2017-11-08T13:09:37.703Z,10.36
2017-11-08T13:10:46.241Z,10.29
2017-11-08T13:11:55.124Z,10.32
2017-11-08T13:13:04.002Z,10.39
2017-11-08T13:14:12.541Z,10.36
2017-11-08T13:15:21.423Z,10.38
2017-11-08T13:16:30.647Z,10.41
2017-11-08T13:17:39.197Z,10.39
2017-11-08T13:18:48.077Z,10.31
2017-11-08T13:19:57.638Z,10.39
2017-11-08T13:21:06.876Z,10.35
2017-11-08T13:22:15.758Z,10.41
2017-11-08T13:23:24.308Z,10.38
2017-11-08T13:24:32.850Z,10.36
2017-11-08T13:25:41.743Z,10.42
2017-11-08T13:26:50.285Z,10.38
2017-11-08T13:27:58.857Z,10.33
2017-11-08T13:29:07.400Z,10.35
2017-11-08T13:30:16.287Z,10.35
2017-11-08T13:31:25.499Z,10.31
2017-11-08T13:32:34.039Z,10.32
2017-11-08T13:33:42.587Z,10.36
2017-11-08T13:34:51.143Z,10.38
2017-11-08T13:36:00.385Z,10.36
2017-11-08T13:37:09.626Z,10.36
2017-11-08T13:38:18.164Z,10.46
2017-11-08T13:39:28.061Z,10.39
2017-11-08T13:40:37.008Z,10.46
2017-11-08T13:41:45.547Z,10.38
2017-11-08T13:42:55.103Z,10.35
2017-11-08T13:44:04.010Z,10.44
2017-11-08T13:45:12.549Z,10.41
2017-11-08T13:46:21.426Z,10.32
2017-11-08T13:47:30.372Z,10.39
2017-11-08T13:48:39.251Z,10.49
2017-11-08T13:49:48.277Z,10.33
2017-11-08T13:50:57.155Z,10.46
2017-11-08T13:52:06.050Z,10.35
2017-11-08T13:53:15.309Z,10.46
2017-11-08T13:54:24.528Z,10.33
2017-11-08T13:55:33.414Z,10.42
2017-11-08T13:56:42.631Z,10.47
2017-11-08T13:57:51.505Z,10.46
2017-11-08T13:59:00.386Z,10.47
2017-11-08T14:00:08.936Z,10.51
2017-11-08T14:01:18.152Z,10.47
2017-11-08T14:02:27.563Z,10.52
2017-11-08T14:03:36.109Z,10.51
2017-11-08T14:04:44.997Z,10.55
2017-11-08T14:05:53.916Z,10.55
2017-11-08T14:07:02.511Z,10.55
2017-11-08T14:08:11.389Z,10.59
2017-11-08T14:09:20.409Z,10.63
2017-11-08T14:10:29.469Z,10.59
2017-11-08T14:11:38.385Z,10.58
2017-11-08T14:12:47.262Z,10.57
2017-11-08T14:13:56.140Z,10.55
2017-11-08T14:15:05.024Z,10.49
2017-11-08T14:16:13.905Z,10.55
2017-11-08T14:17:23.246Z,10.55
2017-11-08T14:18:32.129Z,10.54
2017-11-08T14:19:41.011Z,10.52
2017-11-08T14:20:50.236Z,10.54
2017-11-08T14:21:58.781Z,10.52
2017-11-08T14:23:07.664Z,10.54
2017-11-08T14:24:16.248Z,10.46
2017-11-08T14:25:24.796Z,10.42
2017-11-08T14:26:33.336Z,10.52
2017-11-08T14:27:41.875Z,10.47
2017-11-08T14:28:50.874Z,10.52
2017-11-08T14:29:59.419Z,10.44
2017-11-08T14:31:07.957Z,10.46
2017-11-08T14:32:17.025Z,10.51
2017-11-08T14:33:26.238Z,10.49
2017-11-08T14:34:34.781Z,10.44
2017-11-08T14:35:43.325Z,10.44
2017-11-08T14:36:52.304Z,10.49
2017-11-08T14:38:01.197Z,10.31
2017-11-08T14:39:10.133Z,10.39
2017-11-08T14:40:18.685Z,10.39
2017-11-08T14:41:27.930Z,10.38
2017-11-08T14:42:36.484Z,10.35
2017-11-08T14:43:45.356Z,10.31
2017-11-08T14:44:54.240Z,10.35
2017-11-08T14:46:02.791Z,10.39
2017-11-08T14:47:11.681Z,10.33
2017-11-08T14:48:20.726Z,10.29
2017-11-08T14:49:30.005Z,10.38
2017-11-08T14:50:38.557Z,10.36
2017-11-08T14:51:47.787Z,10.41
2017-11-08T14:52:56.664Z,10.44
2017-11-08T14:54:05.549Z,10.46
2017-11-08T14:55:14.448Z,10.41
2017-11-08T14:56:23.676Z,10.38
2017-11-08T14:57:32.564Z,10.35
2017-11-08T14:58:41.449Z,10.39
2017-11-08T14:59:50.687Z,10.44
2017-11-08T15:00:59.915Z,10.39
2017-11-08T15:02:09.146Z,10.42
2017-11-08T15:03:18.022Z,10.42
2017-11-08T15:04:26.910Z,10.47
2017-11-08T15:05:35.459Z,10.47
2017-11-08T15:06:44.389Z,10.46
2017-11-08T15:07:52.936Z,10.42
2017-11-08T15:09:01.820Z,10.29
2017-11-08T15:10:10.372Z,10.36
2017-11-08T15:11:19.601Z,10.33
2017-11-08T15:12:28.148Z,10.36
2017-11-08T15:13:37.368Z,10.41
2017-11-08T15:14:47.387Z,10.33